sensor_id;sensor_type;location;lat;lon;timestamp;pressure;altitude;pressure_sealevel;temperature;humidity
23223;BME280;11780;13.904;100.620;2024-02-23T00:01:35;101310.25;;;31.72;67.88
23223;BME280;11780;13.904;100.620;2024-02-23T00:04:05;101295.31;;;31.73;67.40
23223;BME280;11780;13.904;100.620;2024-02-23T00:06:37;101312.06;;;31.77;67.52
23223;BME280;11780;13.904;100.620;2024-02-23T00:09:08;101311.06;;;31.73;67.54
23223;BME280;11780;13.904;100.620;2024-02-23T00:11:41;101311.91;;;31.73;67.56
23223;BME280;11780;13.904;100.620;2024-02-23T00:14:15;101320.50;;;31.72;67.76
23223;BME280;11780;13.904;100.620;2024-02-23T00:16:48;101324.28;;;31.76;67.73
23223;BME280;11780;13.904;100.620;2024-02-23T00:19:20;101326.41;;;31.79;67.69
23223;BME280;11780;13.904;100.620;2024-02-23T00:21:51;101318.75;;;31.76;67.50
23223;BME280;11780;13.904;100.620;2024-02-23T00:24:22;101329.28;;;31.74;67.75
23223;BME280;11780;13.904;100.620;2024-02-23T00:26:53;101333.41;;;31.77;67.58
23223;BME280;11780;13.904;100.620;2024-02-23T00:29:23;101330.94;;;31.75;67.36
23223;BME280;11780;13.904;100.620;2024-02-23T00:31:54;101333.69;;;31.75;67.56
23223;BME280;11780;13.904;100.620;2024-02-23T00:34:25;101338.09;;;31.76;67.87
23223;BME280;11780;13.904;100.620;2024-02-23T00:36:55;101336.47;;;31.75;67.61
23223;BME280;11780;13.904;100.620;2024-02-23T00:39:26;101335.00;;;31.78;67.69
23223;BME280;11780;13.904;100.620;2024-02-23T00:41:56;101340.38;;;31.74;67.80
23223;BME280;11780;13.904;100.620;2024-02-23T00:44:27;101347.53;;;31.75;68.11
23223;BME280;11780;13.904;100.620;2024-02-23T00:46:57;101345.78;;;31.79;67.85
23223;BME280;11780;13.904;100.620;2024-02-23T00:49:31;101350.81;;;31.77;67.94
23223;BME280;11780;13.904;100.620;2024-02-23T00:52:01;101351.31;;;31.79;68.07
23223;BME280;11780;13.904;100.620;2024-02-23T00:54:32;101350.81;;;31.77;68.16
23223;BME280;11780;13.904;100.620;2024-02-23T00:57:02;101361.88;;;31.77;67.81
23223;BME280;11780;13.904;100.620;2024-02-23T00:59:33;101361.06;;;31.77;67.80
23223;BME280;11780;13.904;100.620;2024-02-23T01:02:03;101364.00;;;31.80;67.86
23223;BME280;11780;13.904;100.620;2024-02-23T01:04:34;101360.63;;;31.83;67.92
23223;BME280;11780;13.904;100.620;2024-02-23T01:07:04;101367.28;;;31.82;67.76
23223;BME280;11780;13.904;100.620;2024-02-23T01:09:35;101366.16;;;31.83;67.82
23223;BME280;11780;13.904;100.620;2024-02-23T01:12:06;101376.56;;;31.86;67.68
23223;BME280;11780;13.904;100.620;2024-02-23T01:14:37;101372.81;;;31.82;67.96
23223;BME280;11780;13.904;100.620;2024-02-23T01:17:07;101372.81;;;31.82;67.90
23223;BME280;11780;13.904;100.620;2024-02-23T01:19:37;101375.25;;;31.84;67.99
23223;BME280;11780;13.904;100.620;2024-02-23T01:22:08;101380.44;;;31.85;67.58
23223;BME280;11780;13.904;100.620;2024-02-23T01:24:38;101388.13;;;31.88;67.77
23223;BME280;11780;13.904;100.620;2024-02-23T01:27:09;101381.63;;;31.84;67.60
23223;BME280;11780;13.904;100.620;2024-02-23T01:29:39;101387.63;;;31.86;67.39
23223;BME280;11780;13.904;100.620;2024-02-23T01:32:09;101395.63;;;31.88;67.56
23223;BME280;11780;13.904;100.620;2024-02-23T01:34:40;101389.25;;;31.87;67.92
23223;BME280;11780;13.904;100.620;2024-02-23T01:37:11;101393.16;;;31.86;67.88
23223;BME280;11780;13.904;100.620;2024-02-23T01:39:41;101400.53;;;31.91;67.69
23223;BME280;11780;13.904;100.620;2024-02-23T01:42:11;101405.75;;;31.93;67.63
23223;BME280;11780;13.904;100.620;2024-02-23T01:44:42;101412.06;;;31.93;67.44
23223;BME280;11780;13.904;100.620;2024-02-23T01:47:12;101415.16;;;31.92;67.79
23223;BME280;11780;13.904;100.620;2024-02-23T01:49:42;101418.94;;;31.96;67.50
23223;BME280;11780;13.904;100.620;2024-02-23T01:52:14;101420.59;;;31.97;67.03
23223;BME280;11780;13.904;100.620;2024-02-23T01:54:45;101418.81;;;32.01;67.46
23223;BME280;11780;13.904;100.620;2024-02-23T01:57:15;101429.25;;;32.04;67.08
23223;BME280;11780;13.904;100.620;2024-02-23T02:00:07;101427.59;;;32.03;67.05
23223;BME280;11780;13.904;100.620;2024-02-23T02:02:44;101434.16;;;32.07;66.79
23223;BME280;11780;13.904;100.620;2024-02-23T02:05:16;101426.69;;;32.08;67.12
23223;BME280;11780;13.904;100.620;2024-02-23T02:07:47;101432.53;;;32.06;67.03
23223;BME280;11780;13.904;100.620;2024-02-23T02:10:20;101430.59;;;32.07;66.67
23223;BME280;11780;13.904;100.620;2024-02-23T02:12:51;101449.31;;;32.10;66.53
23223;BME280;11780;13.904;100.620;2024-02-23T02:15:21;101440.19;;;32.09;66.14
23223;BME280;11780;13.904;100.620;2024-02-23T02:17:52;101446.34;;;32.06;66.70
23223;BME280;11780;13.904;100.620;2024-02-23T02:20:24;101449.97;;;32.07;66.25
23223;BME280;11780;13.904;100.620;2024-02-23T02:22:56;101460.88;;;32.12;66.05
23223;BME280;11780;13.904;100.620;2024-02-23T02:25:26;101471.66;;;32.13;66.21
23223;BME280;11780;13.904;100.620;2024-02-23T02:27:57;101458.63;;;32.14;66.25
23223;BME280;11780;13.904;100.620;2024-02-23T02:30:27;101465.78;;;32.15;66.38
23223;BME280;11780;13.904;100.620;2024-02-23T02:32:57;101471.00;;;32.16;65.93
23223;BME280;11780;13.904;100.620;2024-02-23T02:35:27;101467.94;;;32.18;66.27
23223;BME280;11780;13.904;100.620;2024-02-23T02:37:58;101467.59;;;32.19;65.87
23223;BME280;11780;13.904;100.620;2024-02-23T02:40:28;101478.69;;;32.19;66.15
23223;BME280;11780;13.904;100.620;2024-02-23T02:42:59;101474.78;;;32.20;65.87
23223;BME280;11780;13.904;100.620;2024-02-23T02:45:29;101481.94;;;32.22;65.89
23223;BME280;11780;13.904;100.620;2024-02-23T02:48:03;101479.69;;;32.24;65.75
23223;BME280;11780;13.904;100.620;2024-02-23T02:50:33;101480.22;;;32.26;65.63
23223;BME280;11780;13.904;100.620;2024-02-23T02:53:04;101480.00;;;32.22;65.71
23223;BME280;11780;13.904;100.620;2024-02-23T02:55:34;101474.16;;;32.24;65.45
23223;BME280;11780;13.904;100.620;2024-02-23T02:58:04;101479.34;;;32.25;64.80
23223;BME280;11780;13.904;100.620;2024-02-23T03:00:35;101482.38;;;32.29;64.81
23223;BME280;11780;13.904;100.620;2024-02-23T03:03:05;101484.31;;;32.28;64.47
23223;BME280;11780;13.904;100.620;2024-02-23T03:05:36;101490.34;;;32.30;64.14
23223;BME280;11780;13.904;100.620;2024-02-23T03:08:06;101483.16;;;32.29;64.34
23223;BME280;11780;13.904;100.620;2024-02-23T03:10:37;101487.91;;;32.29;64.54
23223;BME280;11780;13.904;100.620;2024-02-23T03:13:07;101486.44;;;32.31;64.17
23223;BME280;11780;13.904;100.620;2024-02-23T03:15:37;101494.41;;;32.33;63.94
23223;BME280;11780;13.904;100.620;2024-02-23T03:18:08;101492.16;;;32.35;63.65
23223;BME280;11780;13.904;100.620;2024-02-23T03:20:39;101488.09;;;32.32;63.36
23223;BME280;11780;13.904;100.620;2024-02-23T03:23:10;101483.06;;;32.34;63.56
23223;BME280;11780;13.904;100.620;2024-02-23T03:25:41;101480.28;;;32.34;63.17
23223;BME280;11780;13.904;100.620;2024-02-23T03:28:11;101478.31;;;32.35;63.33
23223;BME280;11780;13.904;100.620;2024-02-23T03:30:41;101476.69;;;32.34;63.42
23223;BME280;11780;13.904;100.620;2024-02-23T03:33:12;101471.13;;;32.34;63.52
23223;BME280;11780;13.904;100.620;2024-02-23T03:35:42;101474.75;;;32.34;63.50
23223;BME280;11780;13.904;100.620;2024-02-23T03:38:13;101456.16;;;32.35;63.20
23223;BME280;11780;13.904;100.620;2024-02-23T03:40:43;101463.84;;;32.38;63.23
23223;BME280;11780;13.904;100.620;2024-02-23T03:43:14;101453.28;;;32.40;63.03
23223;BME280;11780;13.904;100.620;2024-02-23T03:45:44;101452.13;;;32.41;62.96
23223;BME280;11780;13.904;100.620;2024-02-23T03:48:15;101448.25;;;32.42;62.79
23223;BME280;11780;13.904;100.620;2024-02-23T03:50:46;101437.97;;;32.43;62.62
23223;BME280;11780;13.904;100.620;2024-02-23T03:53:16;101442.06;;;32.45;62.38
23223;BME280;11780;13.904;100.620;2024-02-23T03:55:46;101442.88;;;32.46;62.12
23223;BME280;11780;13.904;100.620;2024-02-23T03:58:17;101442.53;;;32.47;62.12
23223;BME280;11780;13.904;100.620;2024-02-23T04:00:47;101439.78;;;32.47;62.03
23223;BME280;11780;13.904;100.620;2024-02-23T04:03:18;101433.75;;;32.45;61.78
23223;BME280;11780;13.904;100.620;2024-02-23T04:05:48;101428.69;;;32.47;61.70
23223;BME280;11780;13.904;100.620;2024-02-23T04:08:18;101431.97;;;32.49;61.83
23223;BME280;11780;13.904;100.620;2024-02-23T04:10:49;101435.25;;;32.52;61.31
23223;BME280;11780;13.904;100.620;2024-02-23T04:13:19;101418.63;;;32.52;61.21
23223;BME280;11780;13.904;100.620;2024-02-23T04:15:50;101412.59;;;32.49;61.09
23223;BME280;11780;13.904;100.620;2024-02-23T04:18:20;101413.91;;;32.52;60.70
23223;BME280;11780;13.904;100.620;2024-02-23T04:20:50;101407.53;;;32.52;60.94
23223;BME280;11780;13.904;100.620;2024-02-23T04:23:20;101406.75;;;32.51;60.91
23223;BME280;11780;13.904;100.620;2024-02-23T04:25:51;101404.47;;;32.53;60.52
23223;BME280;11780;13.904;100.620;2024-02-23T04:28:21;101395.34;;;32.53;60.68
23223;BME280;11780;13.904;100.620;2024-02-23T04:30:52;101391.09;;;32.55;60.48
23223;BME280;11780;13.904;100.620;2024-02-23T04:33:22;101381.66;;;32.56;60.63
23223;BME280;11780;13.904;100.620;2024-02-23T04:35:53;101376.44;;;32.55;60.46
23223;BME280;11780;13.904;100.620;2024-02-23T04:38:24;101374.47;;;32.55;60.40
23223;BME280;11780;13.904;100.620;2024-02-23T04:40:54;101367.00;;;32.56;60.37
23223;BME280;11780;13.904;100.620;2024-02-23T04:43:25;101368.00;;;32.60;60.31
23223;BME280;11780;13.904;100.620;2024-02-23T04:45:55;101361.31;;;32.61;60.13
23223;BME280;11780;13.904;100.620;2024-02-23T04:48:26;101357.09;;;32.63;60.02
23223;BME280;11780;13.904;100.620;2024-02-23T04:50:57;101352.34;;;32.64;59.65
23223;BME280;11780;13.904;100.620;2024-02-23T04:53:27;101349.59;;;32.64;59.58
23223;BME280;11780;13.904;100.620;2024-02-23T04:55:58;101340.63;;;32.67;59.48
23223;BME280;11780;13.904;100.620;2024-02-23T04:58:28;101330.38;;;32.68;59.34
23223;BME280;11780;13.904;100.620;2024-02-23T05:00:58;101340.00;;;32.70;59.30
23223;BME280;11780;13.904;100.620;2024-02-23T05:03:29;101328.28;;;32.73;59.41
23223;BME280;11780;13.904;100.620;2024-02-23T05:06:00;101323.88;;;32.72;59.11
23223;BME280;11780;13.904;100.620;2024-02-23T05:08:31;101324.03;;;32.76;59.10
23223;BME280;11780;13.904;100.620;2024-02-23T05:11:01;101311.31;;;32.75;59.17
23223;BME280;11780;13.904;100.620;2024-02-23T05:13:32;101302.72;;;32.76;58.95
23223;BME280;11780;13.904;100.620;2024-02-23T05:16:02;101304.34;;;32.77;58.89
23223;BME280;11780;13.904;100.620;2024-02-23T05:18:33;101299.09;;;32.76;59.13
23223;BME280;11780;13.904;100.620;2024-02-23T05:21:03;101303.66;;;32.80;58.95
23223;BME280;11780;13.904;100.620;2024-02-23T05:23:34;101301.13;;;32.84;58.73
23223;BME280;11780;13.904;100.620;2024-02-23T05:26:04;101280.41;;;32.82;58.56
23223;BME280;11780;13.904;100.620;2024-02-23T05:28:35;101284.50;;;32.84;58.68
23223;BME280;11780;13.904;100.620;2024-02-23T05:31:05;101287.25;;;32.84;58.64
23223;BME280;11780;13.904;100.620;2024-02-23T05:33:35;101281.38;;;32.86;58.59
23223;BME280;11780;13.904;100.620;2024-02-23T05:36:08;101274.38;;;32.88;58.63
23223;BME280;11780;13.904;100.620;2024-02-23T05:38:38;101268.81;;;32.88;58.60
23223;BME280;11780;13.904;100.620;2024-02-23T05:41:12;101270.78;;;32.88;58.60
23223;BME280;11780;13.904;100.620;2024-02-23T05:43:43;101264.13;;;32.89;58.44
23223;BME280;11780;13.904;100.620;2024-02-23T05:46:14;101258.56;;;32.89;58.65
23223;BME280;11780;13.904;100.620;2024-02-23T05:48:44;101242.94;;;32.93;58.42
23223;BME280;11780;13.904;100.620;2024-02-23T05:51:14;101236.91;;;32.91;58.56
23223;BME280;11780;13.904;100.620;2024-02-23T05:53:44;101231.84;;;32.93;58.55
23223;BME280;11780;13.904;100.620;2024-02-23T05:56:15;101241.13;;;32.97;58.47
23223;BME280;11780;13.904;100.620;2024-02-23T05:58:45;101225.63;;;32.96;58.56
23223;BME280;11780;13.904;100.620;2024-02-23T06:01:16;101220.59;;;32.98;58.47
23223;BME280;11780;13.904;100.620;2024-02-23T06:03:46;101221.91;;;33.01;58.32
23223;BME280;11780;13.904;100.620;2024-02-23T06:06:17;101210.00;;;33.00;58.34
23223;BME280;11780;13.904;100.620;2024-02-23T06:08:48;101200.53;;;33.01;58.59
23223;BME280;11780;13.904;100.620;2024-02-23T06:11:19;101200.19;;;33.03;58.12
23223;BME280;11780;13.904;100.620;2024-02-23T06:13:50;101192.06;;;33.06;58.42
23223;BME280;11780;13.904;100.620;2024-02-23T06:16:21;101185.38;;;33.07;58.24
23223;BME280;11780;13.904;100.620;2024-02-23T06:18:51;101190.56;;;33.09;58.23
23223;BME280;11780;13.904;100.620;2024-02-23T06:21:22;101179.16;;;33.10;58.21
23223;BME280;11780;13.904;100.620;2024-02-23T06:23:53;101164.34;;;33.15;58.09
23223;BME280;11780;13.904;100.620;2024-02-23T06:26:23;101158.59;;;33.12;58.20
23223;BME280;11780;13.904;100.620;2024-02-23T06:28:55;101161.06;;;33.13;58.31
23223;BME280;11780;13.904;100.620;2024-02-23T06:31:26;101148.84;;;33.14;58.28
23223;BME280;11780;13.904;100.620;2024-02-23T06:33:56;101149.63;;;33.15;58.46
23223;BME280;11780;13.904;100.620;2024-02-23T06:36:27;101144.44;;;33.13;58.09
23223;BME280;11780;13.904;100.620;2024-02-23T06:38:57;101145.72;;;33.16;58.23
23223;BME280;11780;13.904;100.620;2024-02-23T06:41:27;101127.97;;;33.17;58.20
23223;BME280;11780;13.904;100.620;2024-02-23T06:43:58;101130.72;;;33.17;58.22
23223;BME280;11780;13.904;100.620;2024-02-23T06:46:28;101123.91;;;33.14;58.24
23223;BME280;11780;13.904;100.620;2024-02-23T06:48:59;101118.00;;;33.16;57.89
23223;BME280;11780;13.904;100.620;2024-02-23T06:51:29;101107.41;;;33.18;58.10
23223;BME280;11780;13.904;100.620;2024-02-23T06:53:59;101102.34;;;33.20;58.22
23223;BME280;11780;13.904;100.620;2024-02-23T06:56:30;101100.38;;;33.20;58.05
23223;BME280;11780;13.904;100.620;2024-02-23T06:59:00;101099.56;;;33.20;57.68
23223;BME280;11780;13.904;100.620;2024-02-23T07:01:31;101086.88;;;33.19;58.19
23223;BME280;11780;13.904;100.620;2024-02-23T07:04:07;101088.50;;;33.20;57.94
23223;BME280;11780;13.904;100.620;2024-02-23T07:06:37;101080.66;;;33.22;58.04
23223;BME280;11780;13.904;100.620;2024-02-23T07:09:07;101077.41;;;33.20;58.08
23223;BME280;11780;13.904;100.620;2024-02-23T07:11:39;101070.22;;;33.19;57.94
23223;BME280;11780;13.904;100.620;2024-02-23T07:14:11;101066.97;;;33.17;58.06
23223;BME280;11780;13.904;100.620;2024-02-23T07:16:44;101065.34;;;33.16;58.10
23223;BME280;11780;13.904;100.620;2024-02-23T07:19:14;101058.66;;;33.17;57.96
23223;BME280;11780;13.904;100.620;2024-02-23T07:21:44;101055.22;;;33.20;57.97
23223;BME280;11780;13.904;100.620;2024-02-23T07:24:14;101048.53;;;33.21;57.94
23223;BME280;11780;13.904;100.620;2024-02-23T07:26:45;101051.31;;;33.21;57.86
23223;BME280;11780;13.904;100.620;2024-02-23T07:29:15;101043.66;;;33.18;57.62
23223;BME280;11780;13.904;100.620;2024-02-23T07:31:46;101040.06;;;33.17;57.51
23223;BME280;11780;13.904;100.620;2024-02-23T07:34:16;101039.41;;;33.20;57.71
23223;BME280;11780;13.904;100.620;2024-02-23T07:36:46;101024.72;;;33.20;57.66
23223;BME280;11780;13.904;100.620;2024-02-23T07:39:17;101024.72;;;33.20;57.47
23223;BME280;11780;13.904;100.620;2024-02-23T07:41:48;101025.41;;;33.17;57.48
23223;BME280;11780;13.904;100.620;2024-02-23T07:44:19;101019.84;;;33.17;57.71
23223;BME280;11780;13.904;100.620;2024-02-23T07:46:49;101017.44;;;33.15;57.63
23223;BME280;11780;13.904;100.620;2024-02-23T07:49:22;101024.25;;;33.18;57.72
23223;BME280;11780;13.904;100.620;2024-02-23T07:51:52;101014.78;;;33.19;57.34
23223;BME280;11780;13.904;100.620;2024-02-23T07:54:22;101014.78;;;33.19;57.34
23223;BME280;11780;13.904;100.620;2024-02-23T07:56:52;101010.88;;;33.20;57.07
23223;BME280;11780;13.904;100.620;2024-02-23T07:59:23;101008.09;;;33.20;56.99
23223;BME280;11780;13.904;100.620;2024-02-23T08:01:53;100998.16;;;33.19;57.01
23223;BME280;11780;13.904;100.620;2024-02-23T08:04:25;100987.88;;;33.19;57.05
23223;BME280;11780;13.904;100.620;2024-02-23T08:06:55;100995.72;;;33.17;57.19
23223;BME280;11780;13.904;100.620;2024-02-23T08:09:26;100982.69;;;33.18;57.06
23223;BME280;11780;13.904;100.620;2024-02-23T08:11:57;100986.25;;;33.18;57.12
23223;BME280;11780;13.904;100.620;2024-02-23T08:14:27;100988.34;;;33.21;56.75
23223;BME280;11780;13.904;100.620;2024-02-23T08:16:58;100982.81;;;33.21;56.98
23223;BME280;11780;13.904;100.620;2024-02-23T08:19:29;100987.56;;;33.21;56.91
23223;BME280;11780;13.904;100.620;2024-02-23T08:21:59;100984.44;;;33.22;57.01
23223;BME280;11780;13.904;100.620;2024-02-23T08:24:29;100979.72;;;33.23;56.88
23223;BME280;11780;13.904;100.620;2024-02-23T08:27:00;100980.88;;;33.22;56.72
23223;BME280;11780;13.904;100.620;2024-02-23T08:29:30;100976.94;;;33.23;56.73
23223;BME280;11780;13.904;100.620;2024-02-23T08:32:01;100968.28;;;33.24;56.62
23223;BME280;11780;13.904;100.620;2024-02-23T08:34:32;100969.56;;;33.27;56.65
23223;BME280;11780;13.904;100.620;2024-02-23T08:37:02;100971.06;;;33.24;56.50
23223;BME280;11780;13.904;100.620;2024-02-23T08:39:32;100966.31;;;33.25;56.65
23223;BME280;11780;13.904;100.620;2024-02-23T08:42:04;100971.19;;;33.28;56.55
23223;BME280;11780;13.904;100.620;2024-02-23T08:44:34;100966.78;;;33.27;56.53
23223;BME280;11780;13.904;100.620;2024-02-23T08:47:06;100966.78;;;33.27;56.55
23223;BME280;11780;13.904;100.620;2024-02-23T08:49:37;100964.38;;;33.25;56.52
23223;BME280;11780;13.904;100.620;2024-02-23T08:52:07;100965.16;;;33.26;56.62
23223;BME280;11780;13.904;100.620;2024-02-23T08:54:37;100961.25;;;33.27;56.60
23223;BME280;11780;13.904;100.620;2024-02-23T08:57:09;100954.44;;;33.24;56.30
23223;BME280;11780;13.904;100.620;2024-02-23T08:59:39;100956.53;;;33.28;56.55
23223;BME280;11780;13.904;100.620;2024-02-23T09:02:10;100966.78;;;33.27;56.58
23223;BME280;11780;13.904;100.620;2024-02-23T09:04:40;100965.34;;;33.30;56.60
23223;BME280;11780;13.904;100.620;2024-02-23T09:07:11;100946.25;;;33.28;56.49
23223;BME280;11780;13.904;100.620;2024-02-23T09:09:42;100943.81;;;33.27;56.56
23223;BME280;11780;13.904;100.620;2024-02-23T09:12:12;100942.69;;;33.28;56.43
23223;BME280;11780;13.904;100.620;2024-02-23T09:14:44;100944.31;;;33.29;56.73
23223;BME280;11780;13.904;100.620;2024-02-23T09:17:15;100949.50;;;33.30;56.95
23223;BME280;11780;13.904;100.620;2024-02-23T09:19:46;100946.25;;;33.28;57.10
23223;BME280;11780;13.904;100.620;2024-02-23T09:22:17;100964.50;;;33.29;56.63
23223;BME280;11780;13.904;100.620;2024-02-23T09:24:48;100959.78;;;33.30;57.02
23223;BME280;11780;13.904;100.620;2024-02-23T09:27:20;100955.38;;;33.29;56.75
23223;BME280;11780;13.904;100.620;2024-02-23T09:29:51;100947.88;;;33.29;56.59
23223;BME280;11780;13.904;100.620;2024-02-23T09:32:22;100948.69;;;33.30;56.56
23223;BME280;11780;13.904;100.620;2024-02-23T09:34:53;100943.16;;;33.30;56.75
23223;BME280;11780;13.904;100.620;2024-02-23T09:37:24;100943.63;;;33.32;56.64
23223;BME280;11780;13.904;100.620;2024-02-23T09:39:54;100938.41;;;33.30;56.61
23223;BME280;11780;13.904;100.620;2024-02-23T09:42:24;100944.31;;;33.29;56.84
23223;BME280;11780;13.904;100.620;2024-02-23T09:45:00;100947.06;;;33.29;56.61
23223;BME280;11780;13.904;100.620;2024-02-23T09:47:31;100951.13;;;33.31;56.78
23223;BME280;11780;13.904;100.620;2024-02-23T09:50:06;100951.94;;;33.32;56.90
23223;BME280;11780;13.904;100.620;2024-02-23T09:52:38;100951.13;;;33.31;56.92
23223;BME280;11780;13.904;100.620;2024-02-23T09:55:09;100946.41;;;33.32;56.87
23223;BME280;11780;13.904;100.620;2024-02-23T09:57:40;100950.31;;;33.31;56.73
23223;BME280;11780;13.904;100.620;2024-02-23T10:00:12;100948.34;;;33.31;57.00
23223;BME280;11780;13.904;100.620;2024-02-23T10:02:43;100961.41;;;33.31;56.79
23223;BME280;11780;13.904;100.620;2024-02-23T10:05:14;100951.94;;;33.32;56.96
23223;BME280;11780;13.904;100.620;2024-02-23T10:07:45;100953.56;;;33.33;56.87
23223;BME280;11780;13.904;100.620;2024-02-23T10:10:24;100961.53;;;33.34;56.92
23223;BME280;11780;13.904;100.620;2024-02-23T10:13:02;100951.59;;;33.33;56.89
23223;BME280;11780;13.904;100.620;2024-02-23T10:15:36;100959.09;;;33.33;56.86
23223;BME280;11780;13.904;100.620;2024-02-23T10:18:21;100963.03;;;33.32;56.95
23223;BME280;11780;13.904;100.620;2024-02-23T10:20:53;100962.22;;;33.31;57.10
23223;BME280;11780;13.904;100.620;2024-02-23T10:23:23;100959.44;;;33.31;56.85
23223;BME280;11780;13.904;100.620;2024-02-23T10:25:54;100969.38;;;33.32;56.90
23223;BME280;11780;13.904;100.620;2024-02-23T10:28:25;100966.13;;;33.30;56.82
23223;BME280;11780;13.904;100.620;2024-02-23T10:30:55;100961.72;;;33.29;57.00
23223;BME280;11780;13.904;100.620;2024-02-23T10:33:26;100973.97;;;33.28;57.17
23223;BME280;11780;13.904;100.620;2024-02-23T10:35:57;100973.97;;;33.28;57.06
23223;BME280;11780;13.904;100.620;2024-02-23T10:38:29;100977.09;;;33.27;57.31
23223;BME280;11780;13.904;100.620;2024-02-23T10:41:05;100977.88;;;33.27;57.31
23223;BME280;11780;13.904;100.620;2024-02-23T10:43:45;100983.44;;;33.27;57.38
23223;BME280;11780;13.904;100.620;2024-02-23T10:46:18;100984.56;;;33.26;57.30
23223;BME280;11780;13.904;100.620;2024-02-23T10:48:50;100983.09;;;33.29;57.00
23223;BME280;11780;13.904;100.620;2024-02-23T10:51:21;100988.31;;;33.30;57.10
23223;BME280;11780;13.904;100.620;2024-02-23T10:53:53;100991.44;;;33.29;57.11
23223;BME280;11780;13.904;100.620;2024-02-23T10:56:23;100999.41;;;33.30;56.97
23223;BME280;11780;13.904;100.620;2024-02-23T10:58:55;101001.22;;;33.26;56.81
23223;BME280;11780;13.904;100.620;2024-02-23T11:01:26;101005.59;;;33.27;56.97
23223;BME280;11780;13.904;100.620;2024-02-23T11:03:57;101014.28;;;33.25;56.96
23223;BME280;11780;13.904;100.620;2024-02-23T11:06:28;101015.41;;;33.24;56.89
23223;BME280;11780;13.904;100.620;2024-02-23T11:09:33;101011.00;;;33.23;56.96
23223;BME280;11780;13.904;100.620;2024-02-23T11:12:03;101014.63;;;33.24;56.86
23223;BME280;11780;13.904;100.620;2024-02-23T11:14:38;101018.03;;;33.21;56.95
23223;BME280;11780;13.904;100.620;2024-02-23T11:17:18;101010.06;;;33.19;56.88
23223;BME280;11780;13.904;100.620;2024-02-23T11:19:50;101021.13;;;33.19;56.92
23223;BME280;11780;13.904;100.620;2024-02-23T11:25:07;101022.75;;;33.20;57.03
23223;BME280;11780;13.904;100.620;2024-02-23T11:27:41;101036.13;;;33.18;57.14
23223;BME280;11780;13.904;100.620;2024-02-23T11:30:16;101031.41;;;33.19;57.60
23223;BME280;11780;13.904;100.620;2024-02-23T11:32:48;101026.53;;;33.16;57.43
23223;BME280;11780;13.904;100.620;2024-02-23T11:35:18;101036.34;;;33.13;57.52
23223;BME280;11780;13.904;100.620;2024-02-23T11:37:53;101038.63;;;33.11;57.61
23223;BME280;11780;13.904;100.620;2024-02-23T11:40:33;101035.03;;;33.10;57.70
23223;BME280;11780;13.904;100.620;2024-02-23T11:43:06;101043.34;;;33.10;57.95
23223;BME280;11780;13.904;100.620;2024-02-23T11:45:36;101042.19;;;33.12;58.14
23223;BME280;11780;13.904;100.620;2024-02-23T11:48:07;101053.97;;;33.08;58.19
23223;BME280;11780;13.904;100.620;2024-02-23T11:50:38;101053.50;;;33.06;57.87
23223;BME280;11780;13.904;100.620;2024-02-23T11:53:08;101058.53;;;33.04;58.12
23223;BME280;11780;13.904;100.620;2024-02-23T11:55:39;101061.31;;;33.04;58.17
23223;BME280;11780;13.904;100.620;2024-02-23T11:58:09;101063.13;;;33.00;58.29
23223;BME280;11780;13.904;100.620;2024-02-23T12:00:45;101057.91;;;32.99;58.49
23223;BME280;11780;13.904;100.620;2024-02-23T12:03:16;101067.69;;;32.96;58.69
23223;BME280;11780;13.904;100.620;2024-02-23T12:05:49;101066.53;;;32.97;59.00
23223;BME280;11780;13.904;100.620;2024-02-23T12:08:21;101067.69;;;32.96;59.09
23223;BME280;11780;13.904;100.620;2024-02-23T12:10:54;101071.28;;;32.97;59.25
23223;BME280;11780;13.904;100.620;2024-02-23T12:13:24;101072.09;;;32.97;59.41
23223;BME280;11780;13.904;100.620;2024-02-23T12:15:57;101071.59;;;32.95;59.53
23223;BME280;11780;13.904;100.620;2024-02-23T12:18:28;101074.84;;;32.97;59.72
23223;BME280;11780;13.904;100.620;2024-02-23T12:21:05;101076.50;;;32.98;59.77
23223;BME280;11780;13.904;100.620;2024-02-23T12:23:43;101080.41;;;32.97;60.07
23223;BME280;11780;13.904;100.620;2024-02-23T12:26:16;101077.16;;;32.95;60.12
23223;BME280;11780;13.904;100.620;2024-02-23T12:28:46;101074.38;;;32.95;60.27
23223;BME280;11780;13.904;100.620;2024-02-23T12:31:23;101078.28;;;32.94;60.38
23223;BME280;11780;13.904;100.620;2024-02-23T12:33:57;101085.47;;;32.95;60.29
23223;BME280;11780;13.904;100.620;2024-02-23T12:36:28;101079.47;;;32.93;60.55
23223;BME280;11780;13.904;100.620;2024-02-23T12:39:00;101080.59;;;32.92;60.52
23223;BME280;11780;13.904;100.620;2024-02-23T12:41:43;101085.97;;;32.88;60.80
23223;BME280;11780;13.904;100.620;2024-02-23T12:45:01;101093.47;;;32.88;61.06
23223;BME280;11780;13.904;100.620;2024-02-23T12:47:24;101100.97;;;32.87;60.96
23223;BME280;11780;13.904;100.620;2024-02-23T12:49:55;101107.63;;;32.86;61.50
23223;BME280;11780;13.904;100.620;2024-02-23T12:52:25;101113.03;;;32.83;61.61
23223;BME280;11780;13.904;100.620;2024-02-23T12:54:56;101126.22;;;32.86;61.63